createdAt,value
2023-04-08T00:02:11.706Z,3.60
2023-04-08T00:04:38.198Z,4.63
2023-04-08T00:07:04.779Z,4.53
2023-04-08T00:09:31.230Z,3.40
2023-04-08T00:11:57.844Z,4.30
2023-04-08T00:14:24.261Z,3.93
2023-04-08T00:16:50.722Z,5.30
2023-04-08T00:19:17.164Z,4.20
2023-04-08T00:21:43.538Z,4.00
2023-04-08T00:24:12.431Z,5.17
2023-04-08T00:26:38.770Z,3.33
2023-04-08T00:29:05.304Z,4.00
2023-04-08T00:31:31.773Z,3.60
2023-04-08T00:33:58.218Z,3.40
2023-04-08T00:36:24.550Z,3.83
2023-04-08T00:38:51.037Z,4.47
2023-04-08T00:41:17.608Z,4.27
2023-04-08T00:43:44.014Z,4.03
2023-04-08T00:46:10.779Z,3.50
2023-04-08T00:48:37.140Z,3.67
2023-04-08T00:51:03.785Z,3.63
2023-04-08T00:53:31.053Z,3.83
2023-04-08T00:55:57.953Z,3.33
2023-04-08T00:58:24.285Z,4.60
2023-04-08T01:01:03.277Z,3.53
2023-04-08T01:03:42.334Z,4.73
2023-04-08T01:06:42.318Z,5.10
2023-04-08T01:09:11.519Z,4.50
2023-04-08T01:11:43.378Z,6.57
2023-04-08T01:14:16.078Z,4.07
2023-04-08T01:16:43.964Z,3.43
2023-04-08T01:19:27.321Z,3.93
2023-04-08T01:22:01.500Z,3.53
2023-04-08T01:24:31.017Z,3.93
2023-04-08T01:26:59.252Z,4.70
2023-04-08T01:29:26.293Z,4.30
2023-04-08T01:31:54.910Z,3.83
2023-04-08T01:34:22.153Z,4.50
2023-04-08T01:36:50.105Z,4.10
2023-04-08T01:39:18.924Z,4.20
2023-04-08T01:41:46.525Z,3.50
2023-04-08T01:44:15.526Z,5.57
2023-04-08T01:46:43.153Z,11.47
2023-04-08T01:49:09.935Z,4.80
2023-04-08T01:51:39.285Z,6.10
2023-04-08T01:54:05.916Z,4.60
2023-04-08T01:56:37.654Z,2.93
2023-04-08T01:59:09.581Z,3.90
2023-04-08T02:01:36.930Z,4.73
2023-04-08T02:04:04.167Z,4.17
2023-04-08T02:06:31.887Z,5.67
2023-04-08T02:08:59.555Z,5.63
2023-04-08T02:11:26.038Z,4.67
2023-04-08T02:13:53.287Z,4.47
2023-04-08T02:16:27.269Z,5.57
2023-04-08T02:19:02.556Z,4.67
2023-04-08T02:21:36.928Z,4.53
2023-04-08T02:24:05.478Z,5.67
2023-04-08T02:26:33.890Z,5.60
2023-04-08T02:29:02.803Z,5.43
2023-04-08T02:31:29.880Z,5.10
2023-04-08T02:33:57.909Z,13.83
2023-04-08T02:36:25.892Z,4.80
2023-04-08T02:38:52.525Z,9.53
2023-04-08T02:41:19.079Z,4.93
2023-04-08T02:43:47.774Z,6.53
2023-04-08T02:46:14.500Z,4.40
2023-04-08T02:48:40.927Z,4.20
2023-04-08T02:51:07.286Z,4.67
2023-04-08T02:53:33.660Z,4.07
2023-04-08T02:56:00.385Z,4.40
2023-04-08T02:58:26.732Z,5.80
2023-04-08T03:00:53.183Z,4.50
2023-04-08T03:03:19.696Z,7.40
2023-04-08T03:05:46.211Z,8.20
2023-04-08T03:08:12.589Z,7.23
2023-04-08T03:10:38.935Z,4.90
2023-04-08T03:13:05.392Z,4.20
2023-04-08T03:15:31.837Z,6.13
2023-04-08T03:17:58.253Z,5.50
2023-04-08T03:20:26.547Z,6.30
2023-04-08T03:22:52.943Z,5.30
2023-04-08T03:25:19.270Z,6.37
2023-04-08T03:27:45.656Z,5.20
2023-04-08T03:30:12.223Z,4.70
2023-04-08T03:32:38.858Z,6.50
2023-04-08T03:35:06.304Z,6.87
2023-04-08T03:37:32.660Z,5.07
2023-04-08T03:39:59.027Z,4.63
2023-04-08T03:42:25.398Z,4.57
2023-04-08T03:44:51.745Z,5.47
2023-04-08T03:47:18.156Z,5.43
2023-04-08T03:49:44.503Z,6.13
2023-04-08T03:52:10.999Z,5.70
2023-04-08T03:54:37.378Z,5.33
2023-04-08T03:57:03.852Z,8.00
2023-04-08T03:59:30.232Z,4.87
2023-04-08T04:01:56.688Z,8.63
2023-04-08T04:04:23.777Z,4.77
2023-04-08T04:06:50.256Z,6.13
2023-04-08T04:09:16.846Z,6.40
2023-04-08T04:11:43.204Z,5.40
2023-04-08T04:14:09.523Z,7.00
2023-04-08T04:16:36.062Z,4.43
2023-04-08T04:19:02.442Z,6.00
2023-04-08T04:21:28.795Z,4.87
2023-04-08T04:23:55.135Z,5.93
2023-04-08T04:26:21.680Z,5.03
2023-04-08T04:28:48.383Z,5.07
2023-04-08T04:31:22.883Z,6.33
2023-04-08T04:33:49.448Z,6.20
2023-04-08T04:36:16.134Z,9.27
2023-04-08T04:38:45.564Z,6.37
2023-04-08T04:41:12.316Z,5.30
2023-04-08T04:43:38.641Z,5.17
2023-04-08T04:46:07.151Z,6.23
2023-04-08T04:48:33.807Z,8.10
2023-04-08T04:51:03.021Z,5.63
2023-04-08T04:53:30.580Z,7.53
2023-04-08T04:55:56.918Z,5.23
2023-04-08T04:58:23.241Z,7.30
2023-04-08T05:00:49.601Z,5.70
2023-04-08T05:03:16.525Z,10.10
2023-04-08T05:05:43.037Z,8.83
2023-04-08T05:08:09.402Z,6.67
2023-04-08T05:10:35.742Z,6.80
2023-04-08T05:13:02.073Z,5.77
2023-04-08T05:15:28.456Z,9.93
2023-04-08T05:17:55.021Z,6.77
2023-04-08T05:20:21.374Z,6.00
2023-04-08T05:22:47.711Z,6.40
2023-04-08T05:25:14.189Z,8.23
2023-04-08T05:27:40.597Z,6.40
2023-04-08T05:30:08.585Z,6.67
2023-04-08T05:32:35.032Z,6.93
2023-04-08T05:35:05.349Z,9.93
2023-04-08T05:37:31.673Z,6.30
2023-04-08T05:39:58.018Z,8.80
2023-04-08T05:42:24.345Z,10.13
2023-04-08T05:44:50.741Z,9.43
2023-04-08T05:47:17.083Z,10.20
2023-04-08T05:49:43.403Z,13.50
2023-04-08T05:52:09.742Z,9.60
2023-04-08T05:54:36.063Z,11.20
2023-04-08T05:57:02.547Z,16.10
2023-04-08T05:59:28.866Z,7.40
2023-04-08T06:01:55.378Z,8.67
2023-04-08T06:04:21.998Z,10.10
2023-04-08T06:06:48.392Z,9.80
2023-04-08T06:09:14.818Z,10.43
2023-04-08T06:11:41.142Z,8.10
2023-04-08T06:14:07.458Z,9.47
2023-04-08T06:16:33.920Z,9.63
2023-04-08T06:19:00.281Z,10.47
2023-04-08T06:21:26.621Z,7.60
2023-04-08T06:23:52.938Z,8.43
2023-04-08T06:26:19.354Z,8.17
2023-04-08T06:28:45.682Z,11.97
2023-04-08T06:31:12.046Z,10.87
2023-04-08T06:33:38.437Z,10.60
2023-04-08T06:36:06.698Z,10.37
2023-04-08T06:38:33.800Z,16.83
2023-04-08T06:41:04.478Z,11.27
2023-04-08T06:43:31.159Z,13.27
2023-04-08T06:45:57.976Z,14.63
2023-04-08T06:48:28.628Z,18.30
2023-04-08T06:50:59.569Z,15.77
2023-04-08T06:53:26.901Z,13.20
2023-04-08T06:55:53.420Z,17.20
2023-04-08T06:58:19.748Z,14.07
2023-04-08T07:00:47.039Z,10.63
2023-04-08T07:03:13.617Z,12.93
2023-04-08T07:05:41.983Z,12.43
2023-04-08T07:08:08.867Z,13.10
2023-04-08T07:10:35.723Z,13.67
2023-04-08T07:13:02.324Z,12.10
2023-04-08T07:15:28.642Z,12.73
2023-04-08T07:17:58.633Z,13.10
2023-04-08T07:20:25.930Z,12.60
2023-04-08T07:22:52.338Z,13.47
2023-04-08T07:25:18.657Z,14.43
2023-04-08T07:27:45.001Z,12.37
2023-04-08T07:30:11.830Z,13.70
2023-04-08T07:32:38.272Z,14.53
2023-04-08T07:35:05.059Z,12.53
2023-04-08T07:37:31.428Z,12.07
2023-04-08T07:39:57.884Z,12.77
2023-04-08T07:42:24.282Z,17.30
2023-04-08T07:44:50.916Z,15.43
2023-04-08T07:47:17.881Z,13.90
2023-04-08T07:49:46.857Z,14.50
2023-04-08T07:52:13.237Z,13.27
2023-04-08T07:54:39.609Z,11.40
2023-04-08T07:57:06.129Z,12.10
2023-04-08T07:59:32.539Z,11.67
2023-04-08T08:01:59.134Z,13.30
2023-04-08T08:04:26.217Z,13.20
2023-04-08T08:06:52.780Z,14.90
2023-04-08T08:09:19.347Z,13.70
2023-04-08T08:11:45.714Z,14.17
2023-04-08T08:14:13.763Z,12.63
2023-04-08T08:16:40.226Z,15.37
2023-04-08T08:19:08.637Z,11.90
2023-04-08T08:21:38.179Z,12.50
2023-04-08T08:24:04.661Z,12.37
2023-04-08T08:26:31.157Z,12.23
2023-04-08T08:28:57.597Z,11.53
2023-04-08T08:31:23.942Z,13.13
2023-04-08T08:33:50.480Z,14.10
2023-04-08T08:36:17.795Z,14.47
2023-04-08T08:38:44.509Z,13.27
2023-04-08T08:41:10.836Z,14.43
2023-04-08T08:43:38.295Z,13.60
2023-04-08T08:46:04.680Z,15.23
2023-04-08T08:48:32.503Z,15.67
2023-04-08T08:50:58.826Z,13.23
2023-04-08T08:53:30.513Z,14.10
2023-04-08T08:56:13.429Z,14.53
2023-04-08T08:58:42.707Z,14.57
2023-04-08T09:01:35.601Z,22.83
2023-04-08T09:04:22.664Z,14.03
2023-04-08T09:07:04.406Z,14.97
2023-04-08T09:09:48.426Z,20.40
2023-04-08T09:12:16.500Z,18.43
2023-04-08T09:14:44.274Z,16.63
2023-04-08T09:17:10.966Z,17.10
2023-04-08T09:19:37.395Z,14.80
2023-04-08T09:22:08.798Z,16.93
2023-04-08T09:24:36.880Z,16.60
2023-04-08T09:27:04.696Z,15.27
2023-04-08T09:29:34.620Z,15.10
2023-04-08T09:32:02.325Z,15.23
2023-04-08T09:34:30.773Z,18.50
2023-04-08T09:36:57.165Z,15.70
2023-04-08T09:39:24.106Z,15.07
2023-04-08T09:41:51.877Z,16.13
2023-04-08T09:44:20.820Z,16.60
2023-04-08T09:46:50.504Z,13.80
2023-04-08T09:49:26.720Z,16.67
2023-04-08T09:52:06.712Z,17.67
2023-04-08T09:54:52.322Z,18.17
2023-04-08T09:57:42.408Z,19.10
2023-04-08T10:00:12.888Z,14.40
2023-04-08T10:02:45.881Z,11.67
2023-04-08T10:05:14.464Z,11.90
2023-04-08T10:07:41.705Z,11.60
2023-04-08T10:10:10.923Z,10.10
2023-04-08T10:12:37.869Z,13.63
2023-04-08T10:15:30.386Z,15.20
2023-04-08T10:18:20.210Z,12.07
2023-04-08T10:20:47.837Z,12.40
2023-04-08T10:23:16.051Z,15.53
2023-04-08T10:25:49.387Z,11.97
2023-04-08T10:28:17.764Z,13.27
2023-04-08T10:30:52.012Z,16.13
2023-04-08T10:33:22.854Z,13.70
2023-04-08T10:35:53.278Z,13.90
2023-04-08T10:38:20.797Z,13.03
2023-04-08T10:40:49.199Z,13.00
2023-04-08T10:43:15.956Z,14.47
2023-04-08T10:45:44.347Z,16.93
2023-04-08T10:48:24.427Z,13.93
2023-04-08T10:50:55.544Z,15.33
2023-04-08T10:53:35.877Z,13.10
2023-04-08T10:56:14.931Z,12.37
2023-04-08T10:58:52.318Z,12.20
2023-04-08T11:01:19.731Z,14.37
2023-04-08T11:03:46.372Z,11.93
2023-04-08T11:06:12.885Z,12.60
2023-04-08T11:08:39.290Z,12.50
2023-04-08T11:11:10.724Z,12.07
2023-04-08T11:13:51.215Z,11.13
2023-04-08T11:16:21.160Z,13.17
2023-04-08T11:18:47.799Z,13.20
2023-04-08T11:21:15.159Z,11.57
2023-04-08T11:23:42.340Z,17.00
2023-04-08T11:26:08.850Z,15.10
2023-04-08T11:28:35.548Z,10.53
2023-04-08T11:31:04.294Z,11.47
2023-04-08T11:33:31.829Z,9.97
2023-04-08T11:36:01.029Z,15.80
2023-04-08T11:38:27.389Z,8.50
2023-04-08T11:41:00.917Z,8.07
2023-04-08T11:43:27.399Z,7.10
2023-04-08T11:45:53.772Z,10.60
2023-04-08T11:48:20.234Z,8.07
2023-04-08T11:50:46.965Z,8.10
2023-04-08T11:53:25.622Z,9.60
2023-04-08T11:55:52.386Z,8.53
2023-04-08T11:58:18.728Z,7.77
2023-04-08T12:00:45.707Z,9.43
2023-04-08T12:03:13.262Z,8.90
2023-04-08T12:05:39.792Z,7.13
2023-04-08T12:08:06.511Z,7.93
2023-04-08T12:10:32.860Z,7.63
2023-04-08T12:12:59.197Z,7.23
2023-04-08T12:15:25.971Z,8.87
2023-04-08T12:17:52.409Z,8.60
2023-04-08T12:20:18.803Z,6.30
2023-04-08T12:22:45.381Z,11.20
2023-04-08T12:25:11.729Z,7.40
2023-04-08T12:27:38.088Z,7.30
2023-04-08T12:30:04.814Z,9.30
2023-04-08T12:32:31.691Z,8.67
2023-04-08T12:34:58.072Z,7.00
2023-04-08T12:37:24.411Z,8.83
2023-04-08T12:39:50.796Z,7.33
2023-04-08T12:42:17.109Z,7.20
2023-04-08T12:44:43.459Z,10.43
2023-04-08T12:47:09.953Z,5.53
2023-04-08T12:49:48.635Z,9.23
2023-04-08T12:52:16.102Z,7.07
2023-04-08T12:54:42.471Z,6.73
2023-04-08T12:57:08.848Z,6.93
2023-04-08T12:59:35.336Z,5.00
2023-04-08T13:02:01.763Z,5.27
2023-04-08T13:04:28.114Z,5.37
2023-04-08T13:06:55.469Z,4.43
2023-04-08T13:09:22.268Z,3.90
2023-04-08T13:11:48.776Z,6.77
2023-04-08T13:14:15.108Z,6.90
2023-04-08T13:16:41.481Z,7.07
2023-04-08T13:19:07.825Z,7.93
2023-04-08T13:21:34.151Z,7.10
2023-04-08T13:24:00.609Z,5.70
2023-04-08T13:26:27.298Z,6.47
2023-04-08T13:28:57.240Z,6.07
2023-04-08T13:31:24.040Z,6.63
2023-04-08T13:33:50.485Z,5.50
2023-04-08T13:36:16.951Z,6.27
2023-04-08T13:38:43.587Z,6.10
2023-04-08T13:41:09.968Z,6.47
2023-04-08T13:43:36.620Z,7.10
2023-04-08T13:46:03.198Z,5.63
2023-04-08T13:48:29.587Z,7.70
2023-04-08T13:50:55.911Z,5.87
2023-04-08T13:53:22.298Z,5.80
2023-04-08T13:55:48.641Z,5.33
2023-04-08T13:58:23.407Z,8.60
2023-04-08T14:00:51.525Z,8.17
2023-04-08T14:03:18.319Z,6.13
2023-04-08T14:05:45.263Z,6.80
2023-04-08T14:08:13.279Z,5.30
2023-04-08T14:10:39.677Z,5.83
2023-04-08T14:13:06.014Z,10.60
2023-04-08T14:15:32.376Z,6.10
2023-04-08T14:17:58.763Z,7.03
2023-04-08T14:20:25.405Z,7.77
2023-04-08T14:22:51.783Z,7.10
2023-04-08T14:25:18.975Z,6.73
2023-04-08T14:27:57.304Z,11.77
2023-04-08T14:30:25.639Z,9.83
2023-04-08T14:32:52.072Z,8.67
2023-04-08T14:35:18.806Z,7.60
2023-04-08T14:37:45.295Z,11.30
2023-04-08T14:40:11.970Z,9.33
2023-04-08T14:42:38.428Z,8.83
2023-04-08T14:45:05.159Z,14.13
2023-04-08T14:47:31.505Z,8.40
2023-04-08T14:49:57.837Z,9.87
2023-04-08T14:52:24.803Z,8.20
2023-04-08T14:54:52.363Z,10.80
2023-04-08T14:57:18.739Z,9.33
2023-04-08T14:59:45.125Z,8.07
2023-04-08T15:02:12.460Z,7.80
2023-04-08T15:04:39.066Z,9.20
2023-04-08T15:07:06.118Z,11.27
2023-04-08T15:09:32.447Z,9.67
2023-04-08T15:11:59.048Z,8.30
2023-04-08T15:14:25.807Z,8.50
2023-04-08T15:16:52.188Z,8.90
2023-04-08T15:19:20.109Z,10.17
2023-04-08T15:21:46.459Z,8.90
2023-04-08T15:24:12.920Z,8.90
2023-04-08T15:26:39.287Z,10.33
2023-04-08T15:29:05.643Z,7.47
2023-04-08T15:31:32.508Z,8.87
2023-04-08T15:33:58.892Z,9.17
2023-04-08T15:36:25.217Z,8.70
2023-04-08T15:38:52.486Z,7.40
2023-04-08T15:41:19.894Z,8.47
2023-04-08T15:43:46.275Z,11.70
2023-04-08T15:46:20.826Z,11.53
2023-04-08T15:48:48.268Z,9.13
2023-04-08T15:51:15.521Z,7.93
2023-04-08T15:53:42.733Z,11.83
2023-04-08T15:56:14.269Z,9.33
2023-04-08T15:58:40.746Z,9.67
2023-04-08T16:01:07.127Z,8.10
2023-04-08T16:03:33.869Z,9.27
2023-04-08T16:06:00.535Z,7.57
2023-04-08T16:08:27.069Z,9.83
2023-04-08T16:11:01.154Z,9.63
2023-04-08T16:13:28.919Z,10.40
2023-04-08T16:15:55.870Z,11.97
2023-04-08T16:18:22.232Z,19.10
2023-04-08T16:20:49.945Z,10.53
2023-04-08T16:23:17.733Z,10.03
2023-04-08T16:25:44.794Z,9.70
2023-04-08T16:28:11.385Z,10.60
2023-04-08T16:30:37.833Z,9.63
2023-04-08T16:33:05.021Z,11.93
2023-04-08T16:35:31.546Z,11.23
2023-04-08T16:37:58.443Z,12.90
2023-04-08T16:40:24.928Z,15.20
2023-04-08T16:42:51.269Z,16.07
2023-04-08T16:45:17.632Z,15.40
2023-04-08T16:47:44.380Z,11.53
2023-04-08T16:50:11.536Z,10.37
2023-04-08T16:52:37.925Z,11.27
2023-04-08T16:55:04.458Z,12.10
2023-04-08T16:57:30.901Z,14.00
2023-04-08T16:59:57.321Z,17.33
2023-04-08T17:02:23.828Z,15.03
2023-04-08T17:04:50.856Z,13.97
2023-04-08T17:07:17.592Z,11.50
2023-04-08T17:09:44.344Z,10.93
2023-04-08T17:12:10.868Z,19.07
2023-04-08T17:14:37.219Z,12.73
2023-04-08T17:17:03.573Z,14.80
2023-04-08T17:19:29.900Z,16.13
2023-04-08T17:21:56.473Z,12.50
2023-04-08T17:24:23.004Z,17.10
2023-04-08T17:26:49.361Z,16.37
2023-04-08T17:29:15.722Z,13.53
2023-04-08T17:31:42.134Z,17.40
2023-04-08T17:34:08.480Z,15.80
2023-04-08T17:36:34.856Z,15.57
2023-04-08T17:39:01.242Z,18.60
2023-04-08T17:41:39.064Z,13.27
2023-04-08T17:44:06.670Z,15.30
2023-04-08T17:46:33.504Z,17.40
2023-04-08T17:48:59.852Z,18.57
2023-04-08T17:51:26.307Z,14.87
2023-04-08T17:53:53.069Z,16.53
2023-04-08T17:56:19.610Z,16.57
2023-04-08T17:58:48.071Z,15.27
2023-04-08T18:01:15.516Z,19.20
2023-04-08T18:03:42.273Z,19.00
2023-04-08T18:06:09.170Z,20.37
2023-04-08T18:08:35.671Z,16.57
2023-04-08T18:11:05.825Z,15.97
2023-04-08T18:13:32.610Z,14.57
2023-04-08T18:15:59.089Z,13.07
2023-04-08T18:18:25.535Z,19.53
2023-04-08T18:20:51.955Z,14.00
2023-04-08T18:23:18.314Z,13.93
2023-04-08T18:25:49.957Z,13.60
2023-04-08T18:28:16.373Z,14.27
2023-04-08T18:30:43.232Z,11.40
2023-04-08T18:33:09.719Z,13.07
2023-04-08T18:35:36.746Z,15.67
2023-04-08T18:38:03.098Z,15.73
2023-04-08T18:40:29.619Z,19.10
2023-04-08T18:42:56.166Z,18.47
2023-04-08T18:45:22.636Z,17.23
2023-04-08T18:47:49.066Z,19.90
2023-04-08T18:50:15.928Z,20.40
2023-04-08T18:52:42.730Z,19.27
2023-04-08T18:55:09.172Z,17.73
2023-04-08T18:57:35.733Z,17.77
2023-04-08T19:00:02.122Z,19.40
2023-04-08T19:02:28.614Z,17.77
2023-04-08T19:04:55.812Z,15.03
2023-04-08T19:07:23.167Z,18.43
2023-04-08T19:09:49.514Z,20.50
2023-04-08T19:12:16.022Z,25.10
2023-04-08T19:14:42.454Z,18.93
2023-04-08T19:17:09.650Z,16.90
2023-04-08T19:19:36.055Z,21.70
2023-04-08T19:22:05.444Z,18.10
2023-04-08T19:24:32.830Z,15.20
2023-04-08T19:26:59.674Z,19.10
2023-04-08T19:29:29.552Z,23.70
2023-04-08T19:31:57.312Z,18.27
2023-04-08T19:34:23.734Z,17.53
2023-04-08T19:36:50.196Z,20.93
2023-04-08T19:39:16.853Z,19.70
2023-04-08T19:41:43.231Z,16.40
2023-04-08T19:44:09.607Z,23.07
2023-04-08T19:46:35.959Z,20.50
2023-04-08T19:49:02.456Z,20.73
2023-04-08T19:51:29.175Z,18.17
2023-04-08T19:53:56.049Z,22.00
2023-04-08T19:56:22.519Z,20.33
2023-04-08T19:58:49.330Z,19.80
2023-04-08T20:01:15.826Z,18.63
2023-04-08T20:03:43.215Z,20.23
2023-04-08T20:06:09.709Z,18.53
2023-04-08T20:08:36.203Z,19.20
2023-04-08T20:11:04.467Z,22.50
2023-04-08T20:13:31.067Z,21.90
2023-04-08T20:15:57.956Z,21.63
2023-04-08T20:18:24.385Z,20.40
2023-04-08T20:20:50.881Z,20.30
2023-04-08T20:23:17.347Z,18.17
2023-04-08T20:25:43.703Z,17.00
2023-04-08T20:28:10.135Z,19.00
2023-04-08T20:30:36.491Z,14.27
2023-04-08T20:33:02.925Z,18.27
2023-04-08T20:35:29.524Z,15.13
2023-04-08T20:37:56.005Z,16.20
2023-04-08T20:40:22.362Z,16.27
2023-04-08T20:42:48.684Z,19.50
2023-04-08T20:45:15.399Z,17.60
2023-04-08T20:47:42.048Z,16.50
2023-04-08T20:50:08.998Z,19.13
2023-04-08T20:52:35.364Z,20.70
2023-04-08T20:55:01.690Z,20.47
2023-04-08T20:57:28.060Z,18.50
2023-04-08T20:59:54.418Z,20.33
2023-04-08T21:02:21.597Z,20.40
2023-04-08T21:04:48.665Z,18.47
2023-04-08T21:07:15.215Z,19.63
2023-04-08T21:09:41.584Z,17.23
2023-04-08T21:12:08.133Z,22.63
2023-04-08T21:14:34.739Z,18.33
2023-04-08T21:17:01.062Z,19.63
2023-04-08T21:19:27.445Z,18.80
2023-04-08T21:21:53.800Z,20.33
2023-04-08T21:24:20.336Z,23.37
2023-04-08T21:26:46.848Z,20.47
2023-04-08T21:29:13.228Z,22.63
2023-04-08T21:31:40.948Z,21.80
2023-04-08T21:34:07.633Z,24.60
2023-04-08T21:36:34.064Z,25.63
2023-04-08T21:39:00.523Z,22.40
2023-04-08T21:41:28.415Z,24.20
2023-04-08T21:43:57.013Z,25.93
2023-04-08T21:46:23.550Z,30.20
2023-04-08T21:48:50.213Z,26.80
2023-04-08T21:51:17.172Z,24.83
2023-04-08T21:53:44.546Z,24.03
2023-04-08T21:56:11.471Z,24.67
2023-04-08T21:58:37.838Z,26.73
2023-04-08T22:01:04.343Z,25.27
2023-04-08T22:03:30.865Z,24.50
2023-04-08T22:05:57.293Z,23.60
2023-04-08T22:08:23.642Z,24.70
2023-04-08T22:10:50.068Z,25.60
2023-04-08T22:13:18.676Z,27.53
2023-04-08T22:15:46.588Z,27.73
2023-04-08T22:18:12.938Z,25.27
2023-04-08T22:20:39.277Z,26.00
2023-04-08T22:23:05.611Z,25.23
2023-04-08T22:25:31.970Z,27.20
2023-04-08T22:27:58.294Z,30.73
2023-04-08T22:30:24.653Z,28.37
2023-04-08T22:32:51.075Z,27.30
2023-04-08T22:35:17.453Z,28.37
2023-04-08T22:37:43.849Z,30.53
2023-04-08T22:40:10.738Z,26.20
2023-04-08T22:42:37.104Z,28.10
2023-04-08T22:45:04.974Z,28.83
2023-04-08T22:47:31.484Z,27.63
2023-04-08T22:49:57.952Z,28.50
2023-04-08T22:52:24.333Z,30.07
2023-04-08T22:54:50.681Z,27.63
2023-04-08T22:57:17.013Z,30.00
2023-04-08T22:59:43.345Z,30.97
2023-04-08T23:02:09.839Z,29.30
2023-04-08T23:04:36.233Z,27.93
2023-04-08T23:07:02.602Z,28.87
2023-04-08T23:09:29.015Z,28.93
2023-04-08T23:11:55.844Z,26.30
2023-04-08T23:14:22.220Z,29.43
2023-04-08T23:16:48.622Z,26.53
2023-04-08T23:19:14.967Z,28.17
2023-04-08T23:21:41.357Z,27.93
2023-04-08T23:24:08.028Z,29.43
2023-04-08T23:26:34.466Z,27.50
2023-04-08T23:29:00.862Z,26.47
2023-04-08T23:31:27.240Z,28.27
2023-04-08T23:33:53.624Z,27.50
2023-04-08T23:36:20.002Z,26.60
2023-04-08T23:38:46.445Z,28.20
2023-04-08T23:41:12.795Z,28.63
2023-04-08T23:43:39.197Z,26.10
2023-04-08T23:46:05.610Z,30.50
2023-04-08T23:48:32.065Z,27.40
2023-04-08T23:50:58.437Z,29.63
2023-04-08T23:53:24.797Z,32.63
2023-04-08T23:55:51.408Z,26.23
2023-04-08T23:58:17.794Z,29.13
